createdAt,value
2022-12-14T00:02:01.921Z,13.90
2022-12-14T00:04:30.524Z,12.50
2022-12-14T00:06:58.886Z,12.60
2022-12-14T00:09:27.207Z,13.40
2022-12-14T00:11:55.532Z,14.20
2022-12-14T00:14:23.905Z,14.20
2022-12-14T00:16:52.198Z,13.70
2022-12-14T00:19:20.812Z,12.50
2022-12-14T00:21:49.133Z,14.20
2022-12-14T00:24:17.564Z,13.70
2022-12-14T00:26:45.891Z,15.10
2022-12-14T00:29:14.202Z,13.80
2022-12-14T00:31:42.547Z,12.30
2022-12-14T00:34:10.919Z,14.20
2022-12-14T00:36:39.279Z,12.60
2022-12-14T00:39:07.600Z,12.60
2022-12-14T00:41:35.854Z,10.90
2022-12-14T00:44:04.322Z,13.20
2022-12-14T00:46:32.596Z,13.70
2022-12-14T00:49:00.868Z,12.10
2022-12-14T00:51:29.234Z,13.70
2022-12-14T00:53:57.486Z,12.50
2022-12-14T00:56:25.707Z,12.30
2022-12-14T00:58:54.437Z,13.40
2022-12-14T01:01:22.904Z,13.60
2022-12-14T01:03:51.539Z,13.90
2022-12-14T01:06:23.058Z,12.90
2022-12-14T01:08:51.437Z,12.60
2022-12-14T01:11:19.671Z,13.30
2022-12-14T01:13:49.621Z,12.80
2022-12-14T01:16:18.432Z,12.70
2022-12-14T01:18:46.899Z,12.60
2022-12-14T01:21:21.280Z,11.70
2022-12-14T01:23:54.476Z,13.30
2022-12-14T01:26:24.116Z,11.70
2022-12-14T01:28:57.368Z,11.70
2022-12-14T01:31:29.197Z,12.90
2022-12-14T01:33:58.807Z,11.40
2022-12-14T01:36:29.775Z,9.00
2022-12-14T01:39:09.810Z,11.90
2022-12-14T01:41:47.523Z,10.10
2022-12-14T01:44:18.549Z,9.80
2022-12-14T01:46:57.200Z,11.50
2022-12-14T01:49:31.359Z,13.30
2022-12-14T01:52:20.660Z,12.10
2022-12-14T01:54:58.457Z,11.70
2022-12-14T01:57:36.995Z,11.20
2022-12-14T02:00:09.194Z,12.60
2022-12-14T02:02:41.398Z,11.30
2022-12-14T02:05:11.385Z,11.90
2022-12-14T02:07:42.494Z,12.50
2022-12-14T02:10:17.931Z,13.70
2022-12-14T02:12:51.315Z,10.80
2022-12-14T02:15:19.719Z,12.00
2022-12-14T02:17:49.294Z,10.70
2022-12-14T02:20:18.513Z,11.40
2022-12-14T02:23:08.689Z,12.20
2022-12-14T02:25:58.458Z,12.10
2022-12-14T02:29:05.281Z,11.10
2022-12-14T02:31:58.845Z,9.80
2022-12-14T02:34:39.355Z,10.40
2022-12-14T02:37:22.576Z,10.60
2022-12-14T02:40:13.459Z,10.60
2022-12-14T02:45:27.356Z,10.90
2022-12-14T02:48:03.230Z,13.00
2022-12-14T02:50:44.219Z,11.70
2022-12-14T02:53:12.487Z,11.30
2022-12-14T02:55:50.853Z,11.70
2022-12-14T02:58:42.018Z,10.40
2022-12-14T03:01:14.885Z,10.60
2022-12-14T03:03:43.667Z,10.20
2022-12-14T03:06:26.219Z,11.60
2022-12-14T03:09:02.959Z,10.90
2022-12-14T03:11:43.087Z,11.30
2022-12-14T03:14:19.349Z,11.40
2022-12-14T03:16:52.132Z,11.70
2022-12-14T03:19:38.177Z,10.50
2022-12-14T03:22:17.361Z,10.10
2022-12-14T03:24:52.978Z,11.70
2022-12-14T03:27:36.232Z,11.20
2022-12-14T03:30:11.992Z,9.90
2022-12-14T03:32:47.062Z,10.00
2022-12-14T03:35:29.781Z,9.20
2022-12-14T03:38:21.354Z,10.60
2022-12-14T03:41:31.629Z,11.70
2022-12-14T03:44:05.167Z,9.70
2022-12-14T03:46:47.091Z,10.30
2022-12-14T03:49:36.714Z,10.10
2022-12-14T03:52:29.047Z,9.30
2022-12-14T03:55:06.409Z,11.00
2022-12-14T03:57:59.949Z,13.30
2022-12-14T04:00:35.256Z,12.90
2022-12-14T04:03:48.546Z,11.00
2022-12-14T04:06:25.831Z,12.10
2022-12-14T04:09:18.597Z,10.40
2022-12-14T04:12:20.101Z,9.50
2022-12-14T04:15:15.220Z,11.50
2022-12-14T04:18:05.164Z,11.00
2022-12-14T04:20:43.382Z,10.40
2022-12-14T04:23:16.797Z,11.50
2022-12-14T04:26:05.900Z,10.70
2022-12-14T04:29:01.312Z,11.20
2022-12-14T04:31:33.169Z,11.00
2022-12-14T04:34:04.982Z,11.40
2022-12-14T04:36:53.330Z,10.30
2022-12-14T04:39:43.818Z,10.30
2022-12-14T04:42:15.419Z,11.00
2022-12-14T04:44:50.759Z,10.90
2022-12-14T04:47:20.144Z,10.40
2022-12-14T04:50:13.313Z,11.90
2022-12-14T04:52:51.650Z,9.70
2022-12-14T04:55:37.000Z,9.70
2022-12-14T04:58:31.238Z,9.80
2022-12-14T05:01:17.891Z,8.50
2022-12-14T05:04:02.356Z,8.90
2022-12-14T05:06:38.079Z,9.00
2022-12-14T05:09:20.065Z,9.20
2022-12-14T05:12:19.653Z,9.40
2022-12-14T05:14:58.724Z,8.50
2022-12-14T05:17:28.468Z,8.70
2022-12-14T05:19:56.720Z,10.00
2022-12-14T05:22:24.984Z,8.00
2022-12-14T05:24:53.363Z,8.10
2022-12-14T05:27:21.683Z,8.70
2022-12-14T05:29:49.951Z,8.70
2022-12-14T05:32:18.295Z,11.40
2022-12-14T05:34:46.595Z,8.30
2022-12-14T05:37:18.468Z,9.20
2022-12-14T05:39:47.360Z,7.00
2022-12-14T05:42:15.728Z,11.00
2022-12-14T05:44:44.084Z,10.30
2022-12-14T05:47:14.196Z,8.70
2022-12-14T05:49:42.577Z,9.20
2022-12-14T05:52:11.050Z,9.00
2022-12-14T05:54:39.405Z,9.10
2022-12-14T05:57:07.729Z,9.60
2022-12-14T05:59:35.969Z,10.20
2022-12-14T06:02:05.405Z,9.10
2022-12-14T06:04:33.773Z,11.60
2022-12-14T06:07:02.072Z,10.70
2022-12-14T06:09:30.375Z,11.10
2022-12-14T06:11:58.739Z,13.70
2022-12-14T06:14:27.148Z,10.70
2022-12-14T06:16:55.474Z,12.70
2022-12-14T06:19:23.780Z,10.30
2022-12-14T06:21:52.023Z,12.10
2022-12-14T06:24:20.388Z,11.80
2022-12-14T06:26:48.678Z,12.90
2022-12-14T06:29:20.245Z,12.80
2022-12-14T06:31:49.446Z,11.20
2022-12-14T06:34:22.224Z,11.90
2022-12-14T06:36:53.377Z,11.50
2022-12-14T06:39:21.637Z,12.20
2022-12-14T06:41:52.032Z,12.80
2022-12-14T06:44:20.373Z,12.80
2022-12-14T06:46:48.808Z,12.30
2022-12-14T06:49:17.508Z,12.40
2022-12-14T06:51:45.810Z,11.90
2022-12-14T06:54:16.018Z,10.80
2022-12-14T06:56:47.051Z,11.70
2022-12-14T06:59:17.315Z,11.60
2022-12-14T07:01:50.190Z,11.00
2022-12-14T07:04:21.643Z,11.40
2022-12-14T07:06:50.300Z,12.20
2022-12-14T07:09:18.635Z,11.70
2022-12-14T07:11:50.728Z,10.60
2022-12-14T07:14:19.122Z,10.90
2022-12-14T07:16:48.648Z,12.00
2022-12-14T07:19:18.111Z,10.00
2022-12-14T07:21:46.521Z,12.40
2022-12-14T07:24:15.075Z,12.40
2022-12-14T07:26:43.470Z,10.20
2022-12-14T07:29:12.353Z,11.10
2022-12-14T07:31:40.884Z,11.30
2022-12-14T07:34:13.160Z,12.20
2022-12-14T07:36:43.492Z,11.80
2022-12-14T07:39:15.629Z,9.50
2022-12-14T07:41:47.256Z,11.40
2022-12-14T07:44:19.916Z,10.30
2022-12-14T07:46:48.335Z,10.20
2022-12-14T07:49:16.581Z,11.50
2022-12-14T07:51:46.033Z,12.40
2022-12-14T07:54:14.958Z,13.40
2022-12-14T07:56:44.213Z,13.40
2022-12-14T07:59:16.429Z,12.30
2022-12-14T08:01:45.347Z,11.00
2022-12-14T08:04:17.074Z,12.30
2022-12-14T08:06:49.698Z,11.60
2022-12-14T08:09:19.905Z,12.30
2022-12-14T08:11:48.249Z,12.80
2022-12-14T08:14:19.293Z,12.40
2022-12-14T08:19:18.044Z,10.40
2022-12-14T08:21:46.894Z,10.90
2022-12-14T08:24:17.186Z,11.40
2022-12-14T08:26:48.949Z,11.20
2022-12-14T08:29:19.098Z,7.60
2022-12-14T08:31:47.878Z,8.20
2022-12-14T08:34:22.882Z,8.30
2022-12-14T08:36:51.432Z,6.70
2022-12-14T08:39:22.279Z,7.10
2022-12-14T08:41:50.562Z,6.80
2022-12-14T08:44:18.927Z,5.70
2022-12-14T08:46:47.906Z,6.00
2022-12-14T08:49:16.406Z,6.70
2022-12-14T08:51:44.690Z,5.80
2022-12-14T08:54:13.112Z,6.00
2022-12-14T08:56:41.529Z,6.20
2022-12-14T08:59:24.495Z,5.50
2022-12-14T09:01:58.191Z,6.00
2022-12-14T09:04:26.738Z,5.40
2022-12-14T09:06:55.050Z,5.50
2022-12-14T09:09:23.356Z,5.90
2022-12-14T09:11:51.771Z,3.90
2022-12-14T09:14:20.594Z,6.80
2022-12-14T09:16:48.924Z,5.30
2022-12-14T09:19:17.255Z,5.00
2022-12-14T09:21:45.740Z,5.40
2022-12-14T09:24:14.026Z,5.90
2022-12-14T09:26:42.365Z,6.50
2022-12-14T09:29:15.234Z,7.40
2022-12-14T09:31:45.582Z,6.50
2022-12-14T09:34:14.196Z,5.50
2022-12-14T09:36:42.568Z,5.90
2022-12-14T09:39:15.040Z,6.10
2022-12-14T09:42:00.511Z,6.00
2022-12-14T09:44:53.209Z,6.40
2022-12-14T09:47:33.809Z,6.40
2022-12-14T09:50:12.672Z,6.40
2022-12-14T09:52:53.588Z,7.30
2022-12-14T09:58:05.724Z,5.80
2022-12-14T10:00:49.649Z,8.00
2022-12-14T10:03:31.877Z,6.30
2022-12-14T10:06:00.518Z,5.40
2022-12-14T10:08:41.280Z,6.60
2022-12-14T10:11:28.271Z,7.10
2022-12-14T10:14:16.498Z,7.20
2022-12-14T10:16:55.513Z,6.90
2022-12-14T10:19:41.799Z,6.90
2022-12-14T10:22:21.635Z,6.00
2022-12-14T10:24:55.079Z,6.20
2022-12-14T10:27:26.246Z,6.00
2022-12-14T10:30:08.890Z,5.30
2022-12-14T10:32:39.572Z,5.10
2022-12-14T10:35:15.531Z,4.50
2022-12-14T10:38:01.187Z,5.30
2022-12-14T10:40:34.426Z,4.40
2022-12-14T10:43:22.367Z,4.30
2022-12-14T10:46:24.572Z,4.50
2022-12-14T10:49:03.343Z,4.80
2022-12-14T10:51:37.520Z,4.00
2022-12-14T10:54:12.445Z,4.20
2022-12-14T10:56:43.563Z,5.20
2022-12-14T10:59:18.431Z,5.60
2022-12-14T11:01:49.990Z,7.60
2022-12-14T11:04:29.889Z,7.10
2022-12-14T11:07:01.388Z,8.30
2022-12-14T11:09:30.298Z,6.60
2022-12-14T11:12:05.754Z,7.80
2022-12-14T11:14:36.912Z,8.40
2022-12-14T11:17:05.826Z,8.30
2022-12-14T11:19:34.391Z,9.40
2022-12-14T11:22:12.869Z,10.10
2022-12-14T11:24:46.726Z,9.30
2022-12-14T11:27:21.218Z,9.00
2022-12-14T11:29:51.456Z,9.80
2022-12-14T11:32:24.244Z,8.00
2022-12-14T11:34:59.083Z,9.70
2022-12-14T11:37:31.123Z,9.10
2022-12-14T11:40:02.223Z,7.80
2022-12-14T11:42:31.070Z,7.20
2022-12-14T11:45:29.565Z,8.00
2022-12-14T11:48:16.350Z,8.60
2022-12-14T11:50:47.356Z,7.90
2022-12-14T11:53:19.549Z,7.80
2022-12-14T11:56:00.803Z,9.60
2022-12-14T11:58:34.036Z,8.20
2022-12-14T12:01:12.088Z,7.90
2022-12-14T12:03:50.081Z,7.50
2022-12-14T12:06:24.532Z,8.60
2022-12-14T12:09:03.024Z,8.30
2022-12-14T12:11:34.665Z,7.10
2022-12-14T12:14:24.903Z,7.40
2022-12-14T12:16:56.367Z,7.50
2022-12-14T12:19:38.261Z,7.50
2022-12-14T12:22:11.961Z,7.50
2022-12-14T12:25:24.164Z,7.40
2022-12-14T12:27:50.716Z,5.80
2022-12-14T12:30:29.654Z,7.80
2022-12-14T12:33:08.127Z,7.30
2022-12-14T12:35:57.190Z,7.00
2022-12-14T12:38:53.594Z,6.30
2022-12-14T12:41:45.428Z,6.60
2022-12-14T12:44:36.938Z,6.30
2022-12-14T12:47:25.533Z,4.80
2022-12-14T12:50:02.444Z,6.60
2022-12-14T12:52:49.596Z,6.50
2022-12-14T12:55:21.361Z,7.30
2022-12-14T12:57:54.280Z,7.70
2022-12-14T13:00:25.971Z,7.30
2022-12-14T13:03:41.731Z,5.90
2022-12-14T13:06:30.919Z,7.30
2022-12-14T13:09:02.352Z,7.20
2022-12-14T13:11:36.389Z,6.90
2022-12-14T13:14:32.733Z,6.70
2022-12-14T13:17:05.990Z,7.00
2022-12-14T13:19:54.558Z,6.70
2022-12-14T13:22:28.906Z,6.90
2022-12-14T13:25:02.965Z,7.70
2022-12-14T13:28:09.187Z,6.90
2022-12-14T13:30:58.565Z,6.50
2022-12-14T13:33:54.675Z,7.00
2022-12-14T13:36:47.978Z,6.70
2022-12-14T13:39:34.915Z,7.40
2022-12-14T13:42:38.498Z,6.80
2022-12-14T13:45:18.244Z,5.30
2022-12-14T13:47:51.576Z,5.80
2022-12-14T13:50:36.296Z,7.30
2022-12-14T13:53:15.971Z,8.10
2022-12-14T13:55:56.789Z,7.90
2022-12-14T13:58:46.327Z,7.30
2022-12-14T14:01:36.952Z,6.90
2022-12-14T14:04:11.686Z,7.70
2022-12-14T14:06:45.024Z,7.00
2022-12-14T14:09:34.808Z,7.30
2022-12-14T14:12:21.820Z,7.50
2022-12-14T14:15:02.809Z,7.80
2022-12-14T14:20:53.817Z,7.00
2022-12-14T14:23:30.362Z,8.00
2022-12-14T14:26:25.203Z,7.90
2022-12-14T14:29:29.389Z,6.70
2022-12-14T14:32:03.886Z,5.90
2022-12-14T14:34:44.914Z,7.00
2022-12-14T14:37:20.096Z,7.30
2022-12-14T14:40:18.903Z,6.30
2022-12-14T14:43:27.594Z,6.40
2022-12-14T14:46:01.334Z,5.80
2022-12-14T14:48:53.265Z,6.00
2022-12-14T14:51:26.900Z,5.90
2022-12-14T14:54:46.287Z,5.90
2022-12-14T14:57:55.002Z,5.50
2022-12-14T15:00:23.740Z,5.10
2022-12-14T15:02:54.624Z,6.00
2022-12-14T15:05:42.031Z,5.00
2022-12-14T15:08:39.021Z,6.60
2022-12-14T15:11:17.082Z,6.30
2022-12-14T15:14:02.711Z,6.30
2022-12-14T15:16:42.066Z,6.90
2022-12-14T15:19:33.665Z,6.30
2022-12-14T15:22:13.283Z,5.50
2022-12-14T15:24:44.920Z,5.70
2022-12-14T15:27:30.604Z,6.40
2022-12-14T15:30:19.480Z,6.60
2022-12-14T15:32:58.527Z,7.10
2022-12-14T15:35:30.823Z,6.60
2022-12-14T15:38:06.357Z,7.40
2022-12-14T15:40:35.764Z,6.70
2022-12-14T15:43:18.318Z,8.30
2022-12-14T15:45:51.945Z,6.60
2022-12-14T15:48:25.004Z,8.10
2022-12-14T15:50:55.569Z,7.20
2022-12-14T15:53:35.676Z,7.80
2022-12-14T15:56:34.847Z,7.00
2022-12-14T15:59:23.865Z,5.90
2022-12-14T16:02:15.734Z,6.50
2022-12-14T16:04:45.540Z,6.70
2022-12-14T16:07:18.874Z,7.40
2022-12-14T16:09:51.788Z,7.00
2022-12-14T16:12:26.371Z,7.20
2022-12-14T16:14:54.746Z,6.50
2022-12-14T16:17:37.498Z,6.20
2022-12-14T16:20:11.454Z,7.50
2022-12-14T16:22:42.291Z,7.60
2022-12-14T16:25:10.638Z,8.00
2022-12-14T16:27:40.827Z,9.50
2022-12-14T16:30:28.038Z,9.00
2022-12-14T16:33:20.283Z,8.50
2022-12-14T16:36:01.651Z,7.80
2022-12-14T16:38:30.409Z,9.00
2022-12-14T16:41:02.010Z,8.20
2022-12-14T16:43:41.917Z,9.10
2022-12-14T16:46:12.014Z,8.40
2022-12-14T16:48:43.378Z,8.60
2022-12-14T16:51:32.747Z,7.80
2022-12-14T16:54:22.788Z,7.60
2022-12-14T16:56:56.515Z,8.60
2022-12-14T16:59:45.832Z,8.60
2022-12-14T17:02:38.308Z,8.10
2022-12-14T17:05:18.969Z,7.10
2022-12-14T17:07:47.306Z,8.90
2022-12-14T17:10:24.146Z,8.40
2022-12-14T17:13:00.044Z,8.70
2022-12-14T17:15:33.001Z,9.70
2022-12-14T17:18:04.771Z,9.40
2022-12-14T17:20:39.471Z,9.10
2022-12-14T17:23:12.257Z,8.40
2022-12-14T17:25:46.038Z,8.80
2022-12-14T17:28:24.015Z,9.50
2022-12-14T17:30:56.703Z,10.00
2022-12-14T17:33:27.686Z,10.60
2022-12-14T17:35:56.847Z,12.00
2022-12-14T17:38:25.427Z,13.40
2022-12-14T17:40:54.665Z,13.30
2022-12-14T17:43:30.174Z,11.00
2022-12-14T17:46:03.550Z,9.70
2022-12-14T17:48:32.680Z,10.00
2022-12-14T17:51:02.023Z,10.20
2022-12-14T17:53:31.641Z,9.80
2022-12-14T17:56:00.811Z,7.20
2022-12-14T17:58:29.942Z,6.10
2022-12-14T18:01:02.104Z,7.20
2022-12-14T18:03:34.044Z,7.30
2022-12-14T18:06:04.794Z,7.90
2022-12-14T18:08:33.609Z,7.10
2022-12-14T18:11:11.774Z,6.20
2022-12-14T18:13:43.085Z,6.90
2022-12-14T18:16:14.279Z,5.80
2022-12-14T18:18:49.965Z,5.40
2022-12-14T18:21:28.502Z,5.00
2022-12-14T18:23:57.587Z,5.60
2022-12-14T18:26:26.253Z,7.20
2022-12-14T18:28:55.596Z,4.50
2022-12-14T18:31:31.589Z,3.90
2022-12-14T18:34:00.655Z,4.60
2022-12-14T18:36:29.773Z,5.30
2022-12-14T18:38:59.065Z,5.40
2022-12-14T18:41:29.867Z,6.10
2022-12-14T18:44:00.714Z,4.30
2022-12-14T18:48:57.847Z,5.00
2022-12-14T18:51:27.348Z,5.60
2022-12-14T18:53:58.531Z,5.20
2022-12-14T18:56:29.324Z,6.00
2022-12-14T19:01:29.813Z,5.30
2022-12-14T19:03:59.219Z,4.40
2022-12-14T19:06:44.070Z,4.10
2022-12-14T19:09:14.961Z,6.00
2022-12-14T19:11:47.052Z,5.90
2022-12-14T19:14:16.387Z,5.10
2022-12-14T19:16:45.443Z,5.00
2022-12-14T19:19:35.669Z,5.40
2022-12-14T19:22:08.927Z,5.00
2022-12-14T19:24:41.059Z,4.60
2022-12-14T19:27:10.226Z,4.90
2022-12-14T19:29:42.039Z,5.50
2022-12-14T19:32:14.171Z,5.10
2022-12-14T19:34:43.333Z,5.00
2022-12-14T19:37:12.486Z,4.60
2022-12-14T19:39:44.137Z,5.30
2022-12-14T19:42:15.991Z,4.70
2022-12-14T19:47:26.147Z,4.20
2022-12-14T19:49:57.415Z,5.80
2022-12-14T19:52:36.139Z,5.30
2022-12-14T19:55:05.650Z,6.50
2022-12-14T19:57:38.911Z,6.70
2022-12-14T20:02:42.648Z,4.90
2022-12-14T20:05:13.270Z,5.30
2022-12-14T20:07:45.221Z,5.30
2022-12-14T20:10:23.082Z,4.90
2022-12-14T20:12:53.853Z,5.60
2022-12-14T20:15:25.176Z,5.80
2022-12-14T20:18:04.972Z,5.20
2022-12-14T20:23:05.425Z,6.10
2022-12-14T20:25:34.661Z,8.10
2022-12-14T20:28:04.575Z,7.00
2022-12-14T20:30:48.144Z,7.20
2022-12-14T20:33:22.837Z,8.10
2022-12-14T20:35:54.246Z,7.60
2022-12-14T20:38:25.086Z,6.40
2022-12-14T20:40:54.461Z,6.10
2022-12-14T20:43:23.684Z,7.30
2022-12-14T20:45:52.552Z,6.00
2022-12-14T20:48:21.039Z,6.20
2022-12-14T20:50:51.216Z,6.30
2022-12-14T20:53:22.180Z,6.70
2022-12-14T20:55:50.392Z,6.00
2022-12-14T20:58:18.662Z,6.40
2022-12-14T21:00:47.226Z,6.10
2022-12-14T21:03:15.741Z,6.40
2022-12-14T21:05:44.394Z,6.40
2022-12-14T21:08:15.729Z,5.90
2022-12-14T21:10:44.145Z,5.50
2022-12-14T21:13:12.520Z,6.60
2022-12-14T21:15:40.848Z,6.30
2022-12-14T21:18:09.179Z,6.40
2022-12-14T21:20:37.429Z,7.60
2022-12-14T21:23:05.650Z,6.90
2022-12-14T21:25:33.960Z,6.80
2022-12-14T21:28:02.202Z,6.70
2022-12-14T21:30:31.299Z,6.00
2022-12-14T21:32:59.603Z,6.10
2022-12-14T21:35:28.213Z,5.70
2022-12-14T21:37:56.962Z,5.40
2022-12-14T21:40:43.939Z,6.60
2022-12-14T21:43:13.074Z,5.30
2022-12-14T21:45:41.378Z,5.80
2022-12-14T21:48:09.638Z,5.80
2022-12-14T21:50:37.954Z,6.00
2022-12-14T21:53:06.298Z,6.40
2022-12-14T21:55:34.567Z,7.20
2022-12-14T21:58:18.190Z,6.30
2022-12-14T22:00:46.591Z,6.20
2022-12-14T22:03:15.060Z,7.20
2022-12-14T22:05:47.448Z,7.00
2022-12-14T22:08:18.675Z,7.40
2022-12-14T22:10:47.097Z,6.30
2022-12-14T22:13:21.328Z,6.50
2022-12-14T22:15:52.556Z,6.60
2022-12-14T22:18:21.562Z,6.90
2022-12-14T22:20:50.046Z,7.30
2022-12-14T22:23:19.740Z,6.30
2022-12-14T22:25:52.948Z,6.70
2022-12-14T22:28:21.303Z,6.40
2022-12-14T22:30:50.636Z,6.40
2022-12-14T22:33:18.925Z,6.90
2022-12-14T22:35:53.180Z,6.20
2022-12-14T22:38:21.402Z,6.30
2022-12-14T22:40:49.678Z,6.20
2022-12-14T22:43:19.889Z,6.20
2022-12-14T22:45:53.229Z,5.10
2022-12-14T22:48:24.822Z,5.50
2022-12-14T22:51:00.796Z,6.60
2022-12-14T22:53:33.888Z,6.20
2022-12-14T22:56:31.144Z,5.90
2022-12-14T22:59:07.430Z,5.40
2022-12-14T23:01:37.847Z,5.20
2022-12-14T23:04:08.671Z,5.20
2022-12-14T23:09:25.350Z,5.40
2022-12-14T23:12:13.422Z,5.70
2022-12-14T23:15:00.745Z,7.00
2022-12-14T23:17:48.215Z,7.50
2022-12-14T23:20:35.595Z,7.20
2022-12-14T23:23:27.603Z,7.50
2022-12-14T23:26:15.111Z,6.90
2022-12-14T23:29:02.546Z,6.80
2022-12-14T23:31:50.017Z,6.80
2022-12-14T23:34:37.243Z,6.90
2022-12-14T23:37:24.210Z,6.90
2022-12-14T23:40:11.359Z,6.50
2022-12-14T23:42:58.592Z,6.30
2022-12-14T23:45:45.875Z,6.70
2022-12-14T23:48:33.202Z,7.40
2022-12-14T23:51:20.671Z,7.40
2022-12-14T23:54:08.099Z,7.60
2022-12-14T23:56:55.618Z,7.10
2022-12-14T23:59:42.871Z,6.80
